Irvington, AL

12:13 AM CST on December 21, 2014 (GMT -0600)
Lott International | Change Station
CLOSE
Current Station
Airport
Location: Pascagoula,
Elevation: 16 ft
Nearby Weather Stations

Elev 16 ft 30.46 °N, 88.53 °W | Updated 20 minutes ago

Overcast
Overcast
51 °F
Feels Like 51 °F
N
7
Wind Variable Wind from North

Today
High -- | Low -- °F
--% Chance of Precip.
Yesterday
High -- | Low -- °F
Precip. -- in
6:45 AM 4:56 PM
Waning Crescent, 1% visible
Pressure 30.16 in
Visibility 10.0 miles
Clouds Overcast 1200 ft
Dew Point 47 °F
Humidity 86%
Rainfall 0.68 in
Snow Depth Not available.
UV 0 out of 12
Pollen .40 out of 12
Air Quality Not available.
Flu Activity Not available.
METAR KPQL 210553Z AUTO 01006KT 10SM OVC012 11/08 A3015 RMK AO2 SLP211 T01060083 10106 20106 401110083 50003 TSNO

More Conditions Fewer Conditions

Pressure 30.16 in
Visibility 10.0 miles
Clouds Overcast 1200 ft
Dew Point 47 °F
Humidity 86%
Rainfall 0.68 in
Snow Depth Not available.
UV 0 out of 12
Pollen .40 out of 12
Air Quality Not available.
Flu Activity Not available.
METAR KPQL 210553Z AUTO 01006KT 10SM OVC012 11/08 A3015 RMK AO2 SLP211 T01060083 10106 20106 401110083 50003 TSNO

More Conditions Fewer Conditions

10-Day Weather Forecast

Almanac

Astronomy

Dec. 21, 2014 Rise Set
Actual Time
Civil Twilight
Nautical Twilight
Astronomical Twilight
Moon
Length of Visible Light
Length of Day
Tomorrow will be .
, % of the Moon is Illuminated

Today's Extremes

State Highs State Lows

Community

WunderPhotos

Upload Photos

1,779,360 photos uploaded!

WunderBlogs® & News

Nearby

Air Quality

  Air Quality AQ Index Pollutant
Not available.

Snow Depth

Station Depth Elevation

Earthquake Activity

City Distance Mag. Time & Date
Minimum magnitude displayed is 2.5.

Coastal Water Temperatures

Place Temperature

Nearby Weather Stations